Time;durP1;ratioP1;P1;durP2;ratioP2;P2;SDS_P1;SDS_P2;PMS_P1;PMS_P2;Temp;Humidity;BMP_temperature;BMP_pressure;BME280_temperature;BME280_humidity;BME280_pressure;Samples;Min_cycle;Max_cycle;Signal;HPM_P1;HPM_P2
2023/10/02 00:01:17;;;;;;;34.10;11.68;;;20.60;92.00;;;;;;7383502;19;20003;-77
2023/10/02 00:03:48;;;;;;;35.60;12.13;;;20.60;92.00;;;;;;7380712;19;20002;-78
2023/10/02 00:06:16;;;;;;;30.30;12.63;;;20.60;92.00;;;;;;7405042;19;20098;-78
2023/10/02 00:08:49;;;;;;;29.30;11.77;;;20.50;92.00;;;;;;7381901;19;20007;-77
2023/10/02 00:16:43;;;;;;;;;;;20.60;91.90;;;;;;7383833;19;20007;-77
2023/10/02 00:19:27;;;;;;;26.65;10.77;;;20.60;91.80;;;;;;7381681;19;19919;-77
2023/10/02 00:21:57;;;;;;;30.02;11.70;;;20.50;91.80;;;;;;7381346;19;20258;-77
2023/10/02 00:24:27;;;;;;;31.33;11.93;;;20.50;91.90;;;;;;7404004;19;20011;-77
2023/10/02 00:26:59;;;;;;;33.72;11.75;;;20.40;91.90;;;;;;7381317;19;20013;-78
2023/10/02 00:29:28;;;;;;;30.88;11.10;;;20.40;91.80;;;;;;7380962;19;20009;-77
2023/10/02 00:31:58;;;;;;;30.42;11.75;;;20.40;91.80;;;;;;7381538;19;19999;-76
2023/10/02 00:34:36;;;;;;;27.98;10.90;;;20.40;91.80;;;;;;7389201;19;20058;-77
2023/10/02 00:37:12;;;;;;;25.45;11.13;;;20.40;91.80;;;;;;7401346;19;20500;-76
2023/10/02 00:39:41;;;;;;;28.45;11.60;;;20.40;91.80;;;;;;7389036;19;20071;-76
2023/10/02 00:42:25;;;;;;;24.10;11.35;;;20.30;91.80;;;;;;7403794;19;20007;-76
2023/10/02 00:44:54;;;;;;;28.60;11.43;;;20.30;92.30;;;;;;7381361;19;20059;-77
2023/10/02 00:47:45;;;;;;;30.38;12.10;;;20.30;92.00;;;;;;7380391;19;20427;-78
2023/10/02 00:50:18;;;;;;;31.90;11.10;;;20.20;92.00;;;;;;7382319;19;20003;-78
2023/10/02 00:52:54;;;;;;;30.27;12.02;;;20.20;91.80;;;;;;7380957;19;20007;-77
2023/10/02 00:55:22;;;;;;;27.65;12.18;;;20.20;91.70;;;;;;7381395;19;19999;-77
2023/10/02 00:57:53;;;;;;;32.83;12.20;;;20.20;91.70;;;;;;7380792;19;20050;-77
2023/10/02 01:00:30;;;;;;;30.48;12.63;;;20.20;92.00;;;;;;7402119;19;20027;-77
2023/10/02 01:03:01;;;;;;;28.58;12.18;;;20.20;91.60;;;;;;7380295;19;20003;-77
2023/10/02 01:05:41;;;;;;;27.70;10.57;;;20.20;91.60;;;;;;7380047;19;20027;-77
2023/10/02 01:08:23;;;;;;;26.90;11.52;;;20.20;91.60;;;;;;7380202;19;20802;-77
2023/10/02 01:10:56;;;;;;;30.48;11.07;;;20.20;91.50;;;;;;7380114;19;20011;-78
2023/10/02 01:13:29;;;;;;;35.88;12.13;;;20.10;91.50;;;;;;7378594;19;20091;-77
2023/10/02 01:15:59;;;;;;;31.58;11.38;;;20.10;91.70;;;;;;7380749;19;20366;-78
2023/10/02 01:18:30;;;;;;;36.60;12.63;;;20.10;91.70;;;;;;7386294;19;20042;-77
2023/10/02 01:21:09;;;;;;;30.13;12.27;;;20.10;91.80;;;;;;7402273;19;20402;-76
2023/10/02 01:24:06;;;;;;;34.88;11.65;;;20.10;91.80;;;;;;7378630;19;20011;-76
2023/10/02 01:26:37;;;;;;;36.70;11.82;;;20.00;91.70;;;;;;7381019;19;20011;-76
2023/10/02 01:29:07;;;;;;;30.73;12.05;;;20.10;91.70;;;;;;7381730;19;20010;-76
2023/10/02 01:31:42;;;;;;;31.40;12.05;;;20.10;91.50;;;;;;7379982;19;20018;-76
2023/10/02 01:34:14;;;;;;;27.98;11.23;;;20.10;91.50;;;;;;7380019;19;20387;-75
2023/10/02 01:36:51;;;;;;;36.92;12.65;;;20.10;92.00;;;;;;7379966;19;20006;-76
2023/10/02 01:39:22;;;;;;;38.72;13.38;;;20.00;91.60;;;;;;7401181;19;20010;-76
2023/10/02 01:41:52;;;;;;;34.13;12.43;;;20.00;91.70;;;;;;7378860;19;20011;-77
2023/10/02 01:44:24;;;;;;;35.53;12.23;;;20.00;91.60;;;;;;7378315;19;20007;-77
2023/10/02 01:46:53;;;;;;;33.30;12.30;;;20.00;91.60;;;;;;7379580;19;20012;-77
2023/10/02 01:49:29;;;;;;;26.40;11.32;;;20.00;91.60;;;;;;7378903;19;20619;-76
2023/10/02 01:52:01;;;;;;;36.15;12.25;;;20.00;91.70;;;;;;7378761;19;20398;-77
2023/10/02 01:54:34;;;;;;;28.13;11.57;;;20.00;91.60;;;;;;7379385;19;20024;-77
2023/10/02 01:57:04;;;;;;;34.00;12.27;;;19.90;91.40;;;;;;7400627;19;20010;-77
2023/10/02 01:59:33;;;;;;;28.80;11.43;;;20.00;91.30;;;;;;7378262;19;20025;-77
2023/10/02 02:02:12;;;;;;;30.77;11.38;;;19.90;91.50;;;;;;7377568;19;20386;-77
2023/10/02 02:04:42;;;;;;;32.83;11.93;;;19.90;91.50;;;;;;7378252;19;20022;-77
2023/10/02 02:07:10;;;;;;;32.60;12.13;;;19.90;91.50;;;;;;7378514;19;19999;-77
2023/10/02 02:09:43;;;;;;;34.83;12.07;;;19.90;91.50;;;;;;7378913;19;20069;-76
2023/10/02 02:12:12;;;;;;;30.50;12.30;;;19.80;91.60;;;;;;7399663;19;20230;-76
2023/10/02 02:14:41;;;;;;;32.72;12.40;;;19.80;91.70;;;;;;7377692;19;20026;-77
2023/10/02 02:17:10;;;;;;;33.65;12.35;;;19.80;91.70;;;;;;7378201;19;20007;-76
2023/10/02 02:19:41;;;;;;;28.30;11.98;;;19.80;91.50;;;;;;7378461;19;20002;-76
2023/10/02 02:22:09;;;;;;;28.48;11.65;;;19.80;91.50;;;;;;7377393;19;20006;-75
2023/10/02 02:24:38;;;;;;;26.67;10.32;;;19.80;91.50;;;;;;7377559;19;20015;-76
2023/10/02 02:27:09;;;;;;;22.52;10.13;;;19.70;91.50;;;;;;7406661;19;20240;-77
2023/10/02 02:29:38;;;;;;;24.70;10.20;;;19.70;91.50;;;;;;7384933;19;20429;-76
2023/10/02 02:32:07;;;;;;;30.60;10.50;;;19.70;91.50;;;;;;7385328;19;20002;-76
2023/10/02 02:34:36;;;;;;;33.28;10.40;;;19.70;91.50;;;;;;7385328;19;20013;-75
2023/10/02 02:37:06;;;;;;;29.23;11.05;;;19.70;91.50;;;;;;7385836;19;20392;-76
2023/10/02 02:39:37;;;;;;;24.77;10.77;;;19.70;91.50;;;;;;7385034;19;20024;-76
2023/10/02 02:42:18;;;;;;;34.75;11.90;;;19.70;91.70;;;;;;7406402;19;20019;-77
2023/10/02 02:44:49;;;;;;;33.10;10.93;;;19.70;91.80;;;;;;7381817;19;20035;-77
2023/10/02 02:47:20;;;;;;;;;;;19.70;91.80;;;;;;7384945;19;20003;-76
2023/10/02 02:49:58;;;;;;;20.90;9.88;;;19.70;91.70;;;;;;7384984;19;20250;-77
2023/10/02 02:52:32;;;;;;;29.15;10.52;;;19.60;91.50;;;;;;7384636;19;20350;-78
2023/10/02 02:55:04;;;;;;;27.38;9.98;;;19.60;91.50;;;;;;7382966;19;20010;-77
2023/10/02 02:57:39;;;;;;;28.75;11.73;;;19.60;91.50;;;;;;7385512;19;20011;-75
2023/10/02 03:02:54;;;;;;;27.50;11.77;;;19.50;91.80;;;;;;7384498;19;20007;-77
2023/10/02 03:05:25;;;;;;;;;;;19.50;91.80;;;;;;7384994;19;20041;-76
2023/10/02 03:07:56;;;;;;;35.63;11.82;;;19.50;91.70;;;;;;7384939;19;19971;-75
2023/10/02 03:10:26;;;;;;;29.65;12.00;;;19.50;91.70;;;;;;7389967;19;20003;-76
2023/10/02 03:13:00;;;;;;;26.40;11.07;;;19.50;91.70;;;;;;7385528;19;20011;-76
2023/10/02 03:18:22;;;;;;;31.75;11.85;;;19.50;91.70;;;;;;7403506;19;20010;-77
2023/10/02 03:20:51;;;;;;;36.63;11.18;;;19.50;91.60;;;;;;7388303;19;20298;-76
2023/10/02 03:23:20;;;;;;;31.10;11.25;;;19.50;91.50;;;;;;7383993;19;20016;-76
2023/10/02 03:25:55;;;;;;;30.20;11.15;;;19.50;91.40;;;;;;7383367;19;20253;-77
2023/10/02 03:28:32;;;;;;;30.90;11.70;;;19.50;91.30;;;;;;7384188;19;20046;-77
2023/10/02 03:31:01;;;;;;;27.83;10.75;;;19.50;91.30;;;;;;7383537;19;20003;-77
2023/10/02 03:33:31;;;;;;;24.27;10.43;;;19.50;91.30;;;;;;7383324;19;20014;-76
2023/10/02 03:36:08;;;;;;;25.35;10.18;;;19.50;91.30;;;;;;7404604;19;20007;-77
2023/10/02 03:38:37;;;;;;;31.67;11.57;;;19.50;91.40;;;;;;7382278;19;20003;-76
2023/10/02 03:41:08;;;;;;;34.65;11.43;;;19.40;91.30;;;;;;7383018;19;20007;-77
2023/10/02 03:43:46;;;;;;;29.30;11.75;;;19.40;91.40;;;;;;7382481;19;20006;-76
2023/10/02 03:46:22;;;;;;;27.50;11.38;;;19.50;91.50;;;;;;7383364;19;20070;-77
2023/10/02 03:48:58;;;;;;;28.30;10.93;;;19.40;91.60;;;;;;7383343;19;20464;-76
2023/10/02 03:51:40;;;;;;;30.60;12.38;;;19.40;91.60;;;;;;7402675;19;20353;-76
2023/10/02 03:54:21;;;;;;;36.22;12.10;;;19.40;91.50;;;;;;7404819;19;20070;-77
2023/10/02 03:56:48;;;;;;;33.33;12.20;;;19.40;91.60;;;;;;7382366;19;19999;-76
2023/10/02 03:59:21;;;;;;;33.25;13.00;;;19.40;91.60;;;;;;7382130;19;20010;-76
2023/10/02 04:01:51;;;;;;;35.03;11.90;;;19.40;91.70;;;;;;7382436;19;20066;-77
2023/10/02 04:04:24;;;;;;;32.67;11.85;;;19.40;91.50;;;;;;7382061;19;20002;-76
2023/10/02 04:06:55;;;;;;;39.70;12.43;;;19.30;91.30;;;;;;7382748;19;20062;-76
2023/10/02 04:09:25;;;;;;;31.15;11.48;;;19.30;91.30;;;;;;7403992;19;20223;-76
2023/10/02 04:11:56;;;;;;;30.20;12.50;;;19.30;91.40;;;;;;7381968;19;20446;-76
2023/10/02 04:14:38;;;;;;;27.20;11.45;;;19.30;91.40;;;;;;7381507;19;20007;-76
2023/10/02 04:17:20;;;;;;;32.42;12.00;;;19.30;91.40;;;;;;7381630;19;20009;-77
2023/10/02 04:19:49;;;;;;;33.80;11.95;;;19.30;91.40;;;;;;7382034;19;20013;-77
2023/10/02 04:22:19;;;;;;;26.83;10.98;;;19.20;91.30;;;;;;7382030;19;20009;-76
2023/10/02 04:24:53;;;;;;;31.52;11.52;;;19.20;91.30;;;;;;7381342;19;19992;-75
2023/10/02 04:28:00;;;;;;;26.42;10.65;;;19.20;91.30;;;;;;7403505;19;20014;-76
2023/10/02 04:30:24;;;;;;;36.33;11.20;;;19.20;91.20;;;;;;7381186;19;20005;-79
2023/10/02 04:32:59;;;;;;;31.23;10.15;;;19.20;91.20;;;;;;7381462;19;20010;-76
2023/10/02 04:38:14;;;;;;;29.70;10.77;;;19.20;91.30;;;;;;7381642;19;20017;-75
2023/10/02 04:40:49;;;;;;;31.58;10.95;;;19.20;91.30;;;;;;7381458;19;20007;-77
2023/10/02 04:43:23;;;;;;;30.40;12.32;;;19.20;91.20;;;;;;7380277;19;20365;-77
2023/10/02 04:46:01;;;;;;;27.33;11.45;;;19.20;91.10;;;;;;7381408;19;20003;-76
2023/10/02 04:48:38;;;;;;;28.13;10.98;;;19.10;91.00;;;;;;7381284;19;20039;-77
2023/10/02 04:51:08;;;;;;;33.45;11.57;;;19.10;91.00;;;;;;7402755;19;20016;-76
2023/10/02 04:53:35;;;;;;;28.15;10.60;;;19.10;91.00;;;;;;7380125;19;20003;-76
2023/10/02 04:56:21;;;;;;;29.83;10.65;;;19.10;91.10;;;;;;7380699;19;20011;-77
2023/10/02 04:58:51;;;;;;;32.70;11.38;;;19.00;91.10;;;;;;7381276;19;20003;-76
2023/10/02 05:01:24;;;;;;;25.50;10.80;;;19.10;91.20;;;;;;7380272;19;20176;-76
2023/10/02 05:03:55;;;;;;;26.90;11.30;;;19.00;91.00;;;;;;7380462;19;20378;-76
2023/10/02 05:09:19;;;;;;;26.17;9.18;;;19.00;91.10;;;;;;7380720;19;20013;-77
2023/10/02 05:11:52;;;;;;;28.70;11.65;;;19.00;91.10;;;;;;7380234;19;20329;-77
2023/10/02 05:14:26;;;;;;;33.38;12.30;;;19.00;91.20;;;;;;7380347;19;20281;-77
2023/10/02 05:17:16;;;;;;;31.60;11.32;;;19.00;91.20;;;;;;7380565;19;20007;-77
2023/10/02 05:20:01;;;;;;;32.80;11.73;;;19.00;91.10;;;;;;7381031;19;20042;-77
2023/10/02 05:22:28;;;;;;;30.00;12.68;;;19.00;91.10;;;;;;7380800;19;20007;-78
2023/10/02 05:24:58;;;;;;;35.05;12.38;;;19.00;91.00;;;;;;7379144;19;20374;-78
2023/10/02 05:27:32;;;;;;;33.63;12.88;;;19.00;91.00;;;;;;7402196;19;20010;-77
2023/10/02 05:30:01;;;;;;;36.55;12.40;;;18.90;91.00;;;;;;7379867;19;20066;-77
2023/10/02 05:32:35;;;;;;;36.97;12.88;;;19.00;91.00;;;;;;7379387;19;20366;-77
2023/10/02 05:35:16;;;;;;;32.60;11.52;;;18.90;91.00;;;;;;7379613;19;20003;-78
2023/10/02 05:37:46;;;;;;;32.60;11.85;;;18.90;91.00;;;;;;7380082;19;20417;-77
2023/10/02 05:45:50;;;;;;;35.00;12.35;;;18.90;90.80;;;;;;7378186;19;20688;-77
2023/10/02 05:48:34;;;;;;;33.85;11.57;;;18.80;91.00;;;;;;7402060;19;20037;-77
2023/10/02 05:51:09;;;;;;;28.55;11.15;;;18.80;91.00;;;;;;7378993;19;20012;-77
2023/10/02 05:53:53;;;;;;;32.00;10.77;;;18.80;90.90;;;;;;7378606;19;20007;-77
2023/10/02 05:56:21;;;;;;;30.75;11.82;;;18.80;90.90;;;;;;7378338;19;20438;-77
2023/10/02 05:58:50;;;;;;;27.40;12.38;;;18.80;90.90;;;;;;7378672;19;20006;-76
2023/10/02 06:01:23;;;;;;;30.90;11.68;;;18.80;90.90;;;;;;7377498;19;20062;-77
2023/10/02 06:04:00;;;;;;;32.30;12.27;;;18.80;91.00;;;;;;7379548;19;20107;-78
2023/10/02 06:06:35;;;;;;;32.90;12.95;;;18.70;91.00;;;;;;7379267;19;20058;-77
2023/10/02 06:09:12;;;;;;;42.65;12.55;;;18.70;91.00;;;;;;7402162;19;20017;-78
2023/10/02 06:11:59;;;;;;;40.35;12.95;;;18.70;91.10;;;;;;7378870;19;20021;-77
2023/10/02 06:14:38;;;;;;;42.83;13.13;;;18.70;91.60;;;;;;7378473;19;20007;-77
2023/10/02 06:17:11;;;;;;;32.38;11.95;;;18.70;91.30;;;;;;7378862;19;20003;-77
2023/10/02 06:19:48;;;;;;;28.70;11.90;;;18.80;91.20;;;;;;7378714;19;20007;-77
2023/10/02 06:22:19;;;;;;;35.00;12.50;;;18.80;91.00;;;;;;7378637;19;20003;-75
2023/10/02 06:24:48;;;;;;;32.90;12.23;;;18.70;90.90;;;;;;7377719;19;20026;-77
2023/10/02 06:27:18;;;;;;;35.33;12.52;;;18.80;90.90;;;;;;7399460;19;20364;-77
2023/10/02 06:29:49;;;;;;;33.53;11.57;;;18.80;91.00;;;;;;7377335;19;20007;-77
2023/10/02 06:32:22;;;;;;;28.58;11.27;;;18.80;91.00;;;;;;7377036;19;20272;-76
2023/10/02 06:35:00;;;;;;;25.98;10.90;;;18.90;90.80;;;;;;7377979;19;20005;-76
2023/10/02 06:37:35;;;;;;;35.42;11.90;;;18.90;90.70;;;;;;7378372;19;20098;-77
2023/10/02 06:40:06;;;;;;;36.40;12.43;;;19.00;90.80;;;;;;7378657;19;20074;-75
2023/10/02 06:42:48;;;;;;;32.57;12.87;;;19.00;90.90;;;;;;7378213;19;20031;-76
2023/10/02 06:45:18;;;;;;;35.58;12.77;;;18.90;91.00;;;;;;7397870;19;20027;-76
2023/10/02 06:47:48;;;;;;;36.22;12.32;;;19.00;91.10;;;;;;7381090;19;20007;-76
2023/10/02 06:50:29;;;;;;;42.60;13.32;;;19.00;91.20;;;;;;7377004;19;20002;-77
2023/10/02 06:52:58;;;;;;;30.50;12.40;;;19.00;91.20;;;;;;7377426;19;20070;-77
2023/10/02 06:55:29;;;;;;;34.78;12.35;;;19.10;91.20;;;;;;7377618;19;20106;-77
2023/10/02 06:57:58;;;;;;;29.63;12.50;;;19.10;91.30;;;;;;7377548;19;20692;-77
2023/10/02 07:00:54;;;;;;;36.35;13.25;;;19.10;91.30;;;;;;7399349;19;20007;-79
2023/10/02 07:03:21;;;;;;;31.90;12.13;;;19.20;91.50;;;;;;7376946;19;20243;-76
2023/10/02 07:05:52;;;;;;;33.95;14.10;;;19.30;91.50;;;;;;7374508;19;20031;-76
2023/10/02 07:08:22;;;;;;;31.38;12.82;;;19.30;91.90;;;;;;7376046;19;20016;-77
2023/10/02 07:10:52;;;;;;;33.70;12.68;;;19.40;91.60;;;;;;7377549;19;20010;-76
2023/10/02 07:13:24;;;;;;;40.25;15.65;;;19.40;91.80;;;;;;7382860;19;20010;-76
2023/10/02 07:15:55;;;;;;;44.72;15.85;;;19.50;91.90;;;;;;7384526;19;20007;-77
2023/10/02 07:21:32;;;;;;;34.05;14.10;;;19.60;92.50;;;;;;7384391;19;19932;-81
2023/10/02 07:24:42;;;;;;;41.63;14.18;;;19.60;92.20;;;;;;7410432;19;20022;-83
2023/10/02 07:27:22;;;;;;;44.78;14.93;;;19.70;92.30;;;;;;7402127;19;20007;-81
2023/10/02 07:30:46;;;;;;;;;;;;;;;;;;;;;
2023/10/02 07:33:26;;;;;;;35.20;13.82;;;19.80;92.50;;;;;;7399625;19;20019;-81
2023/10/02 07:53:17;;;;;;;33.53;15.52;;;20.20;92.80;;;;;;7438946;19;20320;-80
2023/10/02 07:56:33;;;;;;;;;;;;;;;;;;;;;
2023/10/02 07:59:03;;;;;;;51.97;17.58;;;20.30;93.00;;;;;;7417327;19;20774;-79
2023/10/02 08:17:08;;;;;;;44.88;17.02;;;20.60;92.70;;;;;;7439923;19;20014;-78
2023/10/02 08:19:37;;;;;;;46.45;18.63;;;20.70;92.60;;;;;;7419796;19;20006;-78
2023/10/02 08:22:09;;;;;;;44.10;17.25;;;20.70;92.40;;;;;;7416177;19;19999;-79
2023/10/02 08:24:50;;;;;;;53.22;17.98;;;20.70;92.30;;;;;;7413851;19;20015;-82
2023/10/02 08:27:34;;;;;;;51.10;17.15;;;20.70;92.30;;;;;;7436805;19;20011;-82
2023/10/02 08:30:36;;;;;;;45.60;18.17;;;20.80;92.40;;;;;;7415311;19;20006;-82
2023/10/02 08:36:19;;;;;;;42.23;17.13;;;20.80;92.30;;;;;;7395344;19;20355;-81
2023/10/02 08:49:09;;;;;;;48.10;18.08;;;21.00;92.00;;;;;;7440447;19;20054;-82
2023/10/02 08:51:39;;;;;;;51.47;17.50;;;21.00;91.70;;;;;;7408987;19;20026;-77
2023/10/02 08:54:08;;;;;;;42.72;16.95;;;21.00;91.70;;;;;;7430966;19;20027;-78
2023/10/02 08:56:43;;;;;;;58.95;16.98;;;21.10;91.80;;;;;;7412098;19;20010;-78
2023/10/02 08:59:26;;;;;;;53.67;18.13;;;21.20;91.80;;;;;;7410179;19;20010;-78
2023/10/02 09:02:14;;;;;;;47.83;17.50;;;21.20;91.70;;;;;;7399642;19;20020;-78
2023/10/02 09:05:09;;;;;;;43.55;16.75;;;21.20;91.70;;;;;;7382585;19;20037;-77
2023/10/02 09:08:00;;;;;;;52.35;18.30;;;21.30;91.80;;;;;;7381584;19;20024;-78
2023/10/02 09:10:35;;;;;;;49.92;18.20;;;21.30;91.60;;;;;;7381029;19;20122;-78
2023/10/02 09:17:07;;;;;;;43.72;16.35;;;21.50;91.60;;;;;;7417530;19;19987;-86
2023/10/02 09:19:48;;;;;;;43.33;17.13;;;21.50;91.50;;;;;;7389502;19;20011;-82
2023/10/02 09:25:41;;;;;;;45.28;17.25;;;21.60;91.50;;;;;;7407917;19;20404;-81
2023/10/02 09:28:17;;;;;;;47.17;17.42;;;21.60;91.50;;;;;;7387749;19;20028;-80
2023/10/02 09:34:38;;;;;;;49.08;18.50;;;21.60;91.40;;;;;;7413231;19;20369;-85
2023/10/02 09:37:35;;;;;;;53.33;17.50;;;21.70;91.40;;;;;;7389722;19;20015;-81
2023/10/02 10:16:45;;;;;;;51.03;18.15;;;22.20;90.90;;;;;;7335816;19;20014;-76
2023/10/02 10:19:27;;;;;;;49.53;18.00;;;22.20;90.80;;;;;;7384299;19;20002;-76
2023/10/02 10:22:00;;;;;;;50.17;17.52;;;22.20;90.80;;;;;;7384181;19;20263;-76
2023/10/02 10:27:59;;;;;;;51.38;18.15;;;22.30;90.90;;;;;;7283202;19;2004467;-76
2023/10/02 10:30:38;;;;;;;43.33;17.85;;;22.30;91.00;;;;;;7391085;19;20099;-76
2023/10/02 10:33:40;;;;;;;47.42;17.80;;;22.30;91.00;;;;;;7410634;19;20010;-78
2023/10/02 10:36:40;;;;;;;52.70;18.00;;;22.40;91.20;;;;;;7385501;19;20230;-78
2023/10/02 10:39:41;;;;;;;49.15;18.73;;;22.40;91.00;;;;;;7385008;19;20011;-76
2023/10/02 10:42:11;;;;;;;56.25;19.23;;;22.40;90.90;;;;;;7382317;19;20014;-78
2023/10/02 10:44:44;;;;;;;67.53;19.23;;;22.40;90.80;;;;;;7382775;19;20013;-80
2023/10/02 10:47:16;;;;;;;57.88;18.60;;;22.50;90.60;;;;;;7382339;19;20030;-79
2023/10/02 10:50:11;;;;;;;45.90;17.52;;;22.50;90.60;;;;;;7386494;19;20017;-78
2023/10/02 10:52:44;;;;;;;55.47;18.95;;;22.50;90.60;;;;;;7381554;19;20007;-76
2023/10/02 10:55:37;;;;;;;57.20;18.65;;;22.60;90.70;;;;;;7378779;19;19998;-76
2023/10/02 10:58:08;;;;;;;42.53;18.30;;;22.70;90.70;;;;;;7379383;19;20010;-78
2023/10/02 11:00:39;;;;;;;50.72;17.60;;;22.70;90.80;;;;;;7378161;19;20014;-77
2023/10/02 11:03:14;;;;;;;52.28;19.70;;;22.70;90.80;;;;;;7400179;19;20449;-77
2023/10/02 11:05:43;;;;;;;55.10;19.88;;;22.80;90.60;;;;;;7377984;19;20002;-77
2023/10/02 11:08:28;;;;;;;48.72;19.80;;;22.80;90.40;;;;;;7377726;19;20036;-77
2023/10/02 11:14:05;;;;;;;46.25;18.02;;;23.00;90.40;;;;;;7377260;19;20051;-77
2023/10/02 11:16:37;;;;;;;48.08;18.33;;;23.00;90.40;;;;;;7379292;19;20035;-78
2023/10/02 11:19:11;;;;;;;45.30;18.85;;;23.10;90.40;;;;;;7378435;19;20003;-79
2023/10/02 11:21:48;;;;;;;52.67;19.02;;;23.10;90.20;;;;;;7377608;19;20007;-77
2023/10/02 11:28:31;;;;;;;48.40;17.80;;;23.30;90.10;;;;;;7381909;19;20010;-86
2023/10/02 11:31:29;;;;;;;44.83;17.92;;;23.40;89.60;;;;;;7380306;19;20007;-83
2023/10/02 11:37:16;;;;;;;136.02;26.88;;;23.50;89.10;;;;;;7377696;19;20407;-82
2023/10/02 11:45:37;;;;;;;47.85;18.27;;;23.70;88.40;;;;;;7378168;19;20014;-78
2023/10/02 11:48:09;;;;;;;52.25;20.17;;;23.70;89.10;;;;;;7402310;19;20014;-80
2023/10/02 11:50:38;;;;;;;168.18;30.35;;;23.80;88.20;;;;;;7379951;19;20011;-77
2023/10/02 11:53:07;;;;;;;104.32;24.23;;;23.90;88.10;;;;;;7377742;19;20019;-76
2023/10/02 11:55:36;;;;;;;53.10;18.63;;;23.90;88.10;;;;;;7374703;19;20007;-77
2023/10/02 11:58:04;;;;;;;47.60;18.88;;;24.00;87.80;;;;;;7379037;19;20070;-77
2023/10/02 12:00:33;;;;;;;71.85;22.08;;;24.00;87.20;;;;;;7377277;19;20011;-77
2023/10/02 12:03:02;;;;;;;158.95;28.52;;;24.10;87.20;;;;;;7401711;19;20015;-76
2023/10/02 12:05:36;;;;;;;92.15;24.50;;;24.20;86.80;;;;;;7373887;19;20002;-77
2023/10/02 12:15:05;;;;;;;56.35;19.23;;;24.40;85.60;;;;;;7380716;19;20054;-81
2023/10/02 12:18:04;;;;;;;53.00;20.90;;;24.50;85.50;;;;;;7383236;19;20027;-87
2023/10/02 12:20:42;;;;;;;46.53;19.67;;;24.60;85.10;;;;;;7374802;19;20023;-78
2023/10/02 12:23:13;;;;;;;43.85;18.60;;;24.70;84.80;;;;;;7377880;19;20007;-77
2023/10/02 12:25:48;;;;;;;45.53;18.23;;;24.70;84.50;;;;;;7375554;19;20378;-80
2023/10/02 12:28:17;;;;;;;50.53;20.02;;;24.80;83.50;;;;;;7377296;19;20006;-77
2023/10/02 12:30:49;;;;;;;47.53;18.88;;;24.90;83.20;;;;;;7375600;19;20019;-77
2023/10/02 12:33:35;;;;;;;47.88;19.70;;;25.00;83.70;;;;;;7397132;19;20018;-82
2023/10/02 12:36:13;;;;;;;42.63;17.27;;;25.10;82.90;;;;;;7374810;19;20017;-78
2023/10/02 12:38:44;;;;;;;47.60;18.35;;;25.30;82.40;;;;;;7382496;19;20002;-78
2023/10/02 12:41:19;;;;;;;50.63;19.00;;;25.30;82.10;;;;;;7385131;19;20007;-80
2023/10/02 13:07:23;;;;;;;52.97;17.95;;;26.00;81.60;;;;;;7375894;19;20007;-75
2023/10/02 13:09:57;;;;;;;51.13;18.70;;;26.00;81.30;;;;;;7384673;19;20018;-79
2023/10/02 13:12:30;;;;;;;50.60;18.50;;;26.10;80.80;;;;;;7404745;19;19999;-81
2023/10/02 13:15:00;;;;;;;40.53;18.80;;;26.20;80.30;;;;;;7385685;19;20354;-81
2023/10/02 13:17:29;;;;;;;41.17;18.58;;;26.20;80.30;;;;;;7385212;19;20011;-76
2023/10/02 13:19:57;;;;;;;49.67;18.92;;;26.30;80.00;;;;;;7386221;19;20028;-77
2023/10/02 13:22:30;;;;;;;45.22;17.92;;;26.40;79.20;;;;;;7387340;19;20029;-77
2023/10/02 13:24:59;;;;;;;42.03;18.00;;;26.50;80.50;;;;;;7382442;19;20009;-78
2023/10/02 13:27:28;;;;;;;43.90;18.35;;;26.50;79.30;;;;;;7393881;19;20010;-76
2023/10/02 13:29:57;;;;;;;51.85;18.42;;;26.60;79.40;;;;;;7401250;19;20014;-77
2023/10/02 13:32:26;;;;;;;47.47;18.88;;;26.60;78.90;;;;;;7381439;19;20062;-81
2023/10/02 13:34:56;;;;;;;41.67;17.63;;;26.60;78.80;;;;;;7384016;19;20010;-80
2023/10/02 13:37:26;;;;;;;49.67;19.27;;;26.60;78.50;;;;;;7387845;19;19999;-80
2023/10/02 13:39:57;;;;;;;46.35;19.00;;;26.60;78.70;;;;;;7391044;19;20129;-79
2023/10/02 13:42:26;;;;;;;47.95;18.15;;;26.70;78.60;;;;;;7412959;19;19999;-79
2023/10/02 13:44:55;;;;;;;41.10;17.67;;;26.70;78.70;;;;;;7404839;19;20003;-78
2023/10/02 13:47:24;;;;;;;52.13;19.48;;;26.70;78.80;;;;;;7406274;19;20011;-80
2023/10/02 13:49:54;;;;;;;39.67;17.05;;;26.80;78.10;;;;;;7405197;19;20006;-79
2023/10/02 13:52:23;;;;;;;43.72;18.13;;;26.80;78.10;;;;;;7397866;19;20091;-77
2023/10/02 13:55:19;;;;;;;46.33;18.92;;;26.80;78.10;;;;;;7385443;19;20232;-77
2023/10/02 13:57:49;;;;;;;55.58;21.08;;;26.90;77.90;;;;;;7383631;19;20222;-79
2023/10/02 14:00:26;;;;;;;40.20;18.10;;;26.90;77.20;;;;;;7406543;19;20019;-80
2023/10/02 14:02:56;;;;;;;36.28;16.67;;;27.00;76.90;;;;;;7384442;19;20014;-78
2023/10/02 14:05:29;;;;;;;50.73;17.47;;;27.00;76.40;;;;;;7383996;19;20741;-81
2023/10/02 14:07:58;;;;;;;40.05;17.08;;;27.10;76.30;;;;;;7385536;19;20036;-80
2023/10/02 14:10:29;;;;;;;44.78;17.25;;;27.10;76.00;;;;;;7383264;19;20234;-78
2023/10/02 14:13:01;;;;;;;41.67;17.33;;;27.10;75.90;;;;;;7382942;19;20007;-78
2023/10/02 14:15:34;;;;;;;37.33;16.40;;;27.20;75.30;;;;;;7384956;19;20003;-80
2023/10/02 14:18:03;;;;;;;41.42;16.60;;;27.20;74.60;;;;;;7404429;19;20235;-79
2023/10/02 14:20:33;;;;;;;42.55;16.98;;;27.20;74.20;;;;;;7385867;19;19999;-78
2023/10/02 14:23:03;;;;;;;43.10;16.08;;;27.30;74.00;;;;;;7386624;19;20007;-79
2023/10/02 14:25:34;;;;;;;44.35;15.20;;;27.30;73.80;;;;;;7381295;19;20364;-76
2023/10/02 14:28:04;;;;;;;36.80;15.05;;;27.30;73.70;;;;;;7381220;19;20090;-79
2023/10/02 14:30:33;;;;;;;37.10;14.33;;;27.30;73.30;;;;;;7382296;19;20298;-78
2023/10/02 14:33:02;;;;;;;38.00;14.63;;;27.40;72.80;;;;;;7401160;19;20014;-79
2023/10/02 14:35:31;;;;;;;38.08;16.00;;;27.40;73.40;;;;;;7382162;19;20003;-80
2023/10/02 14:37:59;;;;;;;38.00;14.82;;;27.40;72.60;;;;;;7381547;19;20007;-79
2023/10/02 14:43:44;;;;;;;52.00;16.02;;;27.50;72.50;;;;;;7380787;19;20010;-79
2023/10/02 14:46:14;;;;;;;40.08;15.10;;;27.50;72.60;;;;;;7379026;19;20022;-78
2023/10/02 14:48:42;;;;;;;34.40;14.88;;;27.50;72.50;;;;;;7376558;19;20014;-78
2023/10/02 14:51:12;;;;;;;32.85;14.70;;;27.50;72.30;;;;;;7401666;19;20014;-78
2023/10/02 14:53:42;;;;;;;39.28;14.90;;;27.60;72.50;;;;;;7379383;19;20009;-80
2023/10/02 14:56:11;;;;;;;34.83;13.88;;;27.60;72.50;;;;;;7381022;19;20036;-77
2023/10/02 14:58:46;;;;;;;32.53;14.38;;;27.60;72.20;;;;;;7377602;19;20007;-79
2023/10/02 15:01:19;;;;;;;31.77;13.32;;;27.60;72.40;;;;;;7375079;19;20272;-77
2023/10/02 15:03:50;;;;;;;35.35;13.73;;;27.70;72.40;;;;;;7377381;19;20720;-74
2023/10/02 15:06:18;;;;;;;42.92;14.00;;;27.60;71.90;;;;;;7396220;19;20023;-77
2023/10/02 15:08:47;;;;;;;37.67;13.90;;;27.60;72.10;;;;;;7376916;19;20074;-78
2023/10/02 15:11:18;;;;;;;36.45;14.20;;;27.70;72.50;;;;;;7380052;19;20496;-80
2023/10/02 15:13:48;;;;;;;36.15;13.43;;;27.70;72.50;;;;;;7380967;19;20263;-78
2023/10/02 15:16:20;;;;;;;32.55;12.77;;;27.70;72.30;;;;;;7378619;19;20017;-79
2023/10/02 15:18:49;;;;;;;32.88;13.05;;;27.70;72.50;;;;;;7379426;19;20009;-78
2023/10/02 15:21:20;;;;;;;31.30;12.38;;;27.70;72.50;;;;;;7404810;19;20017;-78
2023/10/02 15:23:48;;;;;;;32.75;13.02;;;27.70;72.30;;;;;;7377609;19;20006;-77
2023/10/02 15:26:18;;;;;;;31.52;12.77;;;27.70;72.60;;;;;;7382603;19;20003;-83
2023/10/02 15:28:50;;;;;;;32.85;13.60;;;27.70;72.90;;;;;;7382543;19;20014;-78
2023/10/02 15:31:21;;;;;;;31.80;13.15;;;27.70;72.90;;;;;;7381505;19;20003;-78
2023/10/02 15:33:55;;;;;;;27.58;13.27;;;27.70;73.00;;;;;;7379486;19;20018;-78
2023/10/02 15:36:23;;;;;;;35.45;13.25;;;27.60;72.90;;;;;;7407124;19;20013;-81
2023/10/02 15:38:53;;;;;;;29.50;13.02;;;27.60;73.10;;;;;;7388087;19;20027;-79
2023/10/02 15:41:31;;;;;;;37.38;13.48;;;27.60;73.30;;;;;;7382695;19;20531;-81
2023/10/02 15:44:04;;;;;;;34.80;14.50;;;27.60;73.50;;;;;;7385601;19;20011;-78
2023/10/02 15:46:36;;;;;;;37.97;13.30;;;27.60;73.70;;;;;;7383846;19;20235;-80
2023/10/02 15:49:19;;;;;;;26.40;12.07;;;27.60;73.80;;;;;;7386492;19;20074;-83
2023/10/02 15:52:09;;;;;;;34.50;13.32;;;27.60;74.00;;;;;;7394340;19;20011;-83
2023/10/02 15:54:43;;;;;;;27.65;12.57;;;27.60;74.20;;;;;;7406496;19;20715;-80
2023/10/02 15:57:13;;;;;;;35.60;13.00;;;27.50;74.10;;;;;;7403284;19;20022;-80
2023/10/02 15:59:42;;;;;;;37.33;12.80;;;27.50;74.30;;;;;;7381113;19;20003;-80